CYNL

METAR CYNL 160200Z AUTO 01004KT 9SM CLR 02/M05 A3034 RMK AO1 SLP298
METAR
LOCATION
CYNL
DATE - TIME
160200Z
WIND
010 TRUE @ 4 KNOTS
VISIBILITY
9SM
RUNWAY VISUAL RANGE
NOT REPORTED
WEATHER
CLOUDINESS
CLR
TEMP / DEWPOINT
2 ºC / -5 ºC
ALTIMETER
30.34 in. Hg
RECENT WEATHER
NOT REPORTED
WIND SHEAR
NOT REPORTED
REMARKS
RMK AO1 SLP298
SEA LEVEL PRESSURE: hPa

CYNL

METAR CYNL 160100Z AUTO 35008KT 9SM CLR 04/M05 A3034 RMK AO1 SLP297
METAR
LOCATION
CYNL
DATE - TIME
160100Z
WIND
350 TRUE @ 8 KNOTS
VISIBILITY
9SM
RUNWAY VISUAL RANGE
NOT REPORTED
WEATHER
CLOUDINESS
CLR
TEMP / DEWPOINT
4 ºC / -5 ºC
ALTIMETER
30.34 in. Hg
RECENT WEATHER
NOT REPORTED
WIND SHEAR
NOT REPORTED
REMARKS
RMK AO1 SLP297
SEA LEVEL PRESSURE: hPa

CYNL

METAR CYNL 160000Z AUTO 31005KT 9SM CLR 06/M06 A3034 RMK AO1 SLP296
METAR
LOCATION
CYNL
DATE - TIME
160000Z
WIND
310 TRUE @ 5 KNOTS
VISIBILITY
9SM
RUNWAY VISUAL RANGE
NOT REPORTED
WEATHER
CLOUDINESS
CLR
TEMP / DEWPOINT
6 ºC / -6 ºC
ALTIMETER
30.34 in. Hg
RECENT WEATHER
NOT REPORTED
WIND SHEAR
NOT REPORTED
REMARKS
RMK AO1 SLP296
SEA LEVEL PRESSURE: hPa

Your time UTC time
 
 
Weather data provided by AXYS Technologies Inc., www.axystechnologies.com
 
Station History